createdAt,value
2017-08-03T00:00:12.792Z,1001.31
2017-08-03T00:01:12.786Z,1001.24
2017-08-03T00:02:12.778Z,1001.27
2017-08-03T00:03:13.008Z,1001.31
2017-08-03T00:04:12.776Z,1001.30
2017-08-03T00:05:12.770Z,1001.33
2017-08-03T00:06:12.763Z,1001.33
2017-08-03T00:07:12.756Z,1001.29
2017-08-03T00:08:12.752Z,1001.31
2017-08-03T00:09:13.042Z,1001.28
2017-08-03T00:10:12.725Z,1001.24
2017-08-03T00:11:12.720Z,1001.28
2017-08-03T00:12:12.726Z,1001.25
2017-08-03T00:13:12.708Z,1001.23
2017-08-03T00:14:12.701Z,1001.19
2017-08-03T00:15:13.086Z,1001.24
2017-08-03T00:16:12.692Z,1001.23
2017-08-03T00:17:12.694Z,1001.24
2017-08-03T00:18:12.676Z,1001.23
2017-08-03T00:19:12.676Z,1001.19
2017-08-03T00:20:12.674Z,1001.13
2017-08-03T00:21:13.074Z,1001.08
2017-08-03T00:22:12.653Z,1001.06
2017-08-03T00:23:12.644Z,1001.03
2017-08-03T00:24:12.654Z,1000.95
2017-08-03T00:25:12.642Z,1000.92
2017-08-03T00:26:12.632Z,1000.89
2017-08-03T00:27:12.857Z,1000.83
2017-08-03T00:28:12.616Z,1000.84
2017-08-03T00:29:12.610Z,1000.86
2017-08-03T00:30:12.608Z,1000.84
2017-08-03T00:31:12.610Z,1000.83
2017-08-03T00:32:12.602Z,1000.86
2017-08-03T00:33:12.990Z,1000.85
2017-08-03T00:34:12.586Z,1000.84
2017-08-03T00:35:12.575Z,1000.87
2017-08-03T00:36:12.562Z,1000.84
2017-08-03T00:37:12.563Z,1000.79
2017-08-03T00:38:12.562Z,1000.73
2017-08-03T00:39:12.602Z,1000.72
2017-08-03T00:40:12.538Z,1000.71
2017-08-03T00:41:12.544Z,1000.76
2017-08-03T00:42:12.527Z,1000.82
2017-08-03T00:43:12.841Z,1000.86
2017-08-03T00:44:12.518Z,1000.91
2017-08-03T00:45:12.522Z,1000.87
2017-08-03T00:46:12.499Z,1000.73
2017-08-03T00:47:12.511Z,1000.63
2017-08-03T00:48:12.502Z,1000.66
2017-08-03T00:49:12.727Z,1000.71
2017-08-03T00:50:12.487Z,1000.78
2017-08-03T00:51:12.479Z,1000.82
2017-08-03T00:52:12.464Z,1000.81
2017-08-03T00:53:12.465Z,1000.84
2017-08-03T00:54:12.452Z,1000.80
2017-08-03T00:55:12.852Z,1000.81
2017-08-03T00:56:12.457Z,1000.84
2017-08-03T00:57:12.434Z,1000.89
2017-08-03T00:58:12.424Z,1000.90
2017-08-03T00:59:12.429Z,1000.91
2017-08-03T01:00:12.426Z,1000.87
2017-08-03T01:01:12.653Z,1000.80
2017-08-03T01:02:12.413Z,1000.81
2017-08-03T01:03:12.417Z,1000.75
2017-08-03T01:04:12.391Z,1000.72
2017-08-03T01:05:12.382Z,1000.74
2017-08-03T01:06:12.374Z,1000.72
2017-08-03T01:07:12.658Z,1000.77
2017-08-03T01:08:12.384Z,1000.72
2017-08-03T01:09:12.357Z,1000.71
2017-08-03T01:10:12.356Z,1000.69
2017-08-03T01:11:12.339Z,1000.70
2017-08-03T01:12:12.347Z,1000.66
2017-08-03T01:13:12.654Z,1000.69
2017-08-03T01:14:12.323Z,1000.70
2017-08-03T01:15:12.331Z,1000.68
2017-08-03T01:16:12.312Z,1000.69
2017-08-03T01:17:12.311Z,1000.64
2017-08-03T01:18:12.299Z,1000.59
2017-08-03T01:19:12.339Z,1000.59
2017-08-03T01:20:12.297Z,1000.69
2017-08-03T01:21:12.290Z,1000.61
2017-08-03T01:22:12.277Z,1000.56
2017-08-03T01:23:12.277Z,1000.43
2017-08-03T01:24:12.511Z,1000.41
2017-08-03T01:25:12.252Z,1000.35
2017-08-03T01:26:12.248Z,1000.35
2017-08-03T01:27:12.240Z,1000.35
2017-08-03T01:28:12.246Z,1000.35
2017-08-03T01:29:12.241Z,1000.39
2017-08-03T01:30:12.518Z,1000.41
2017-08-03T01:31:12.221Z,1000.42
2017-08-03T01:32:12.222Z,1000.37
2017-08-03T01:33:12.223Z,1000.32
2017-08-03T01:34:12.196Z,1000.28
2017-08-03T01:35:12.205Z,1000.32
2017-08-03T01:36:12.495Z,1000.28
2017-08-03T01:37:12.177Z,1000.20
2017-08-03T01:38:12.170Z,1000.16
2017-08-03T01:39:12.163Z,1000.21
2017-08-03T01:40:12.163Z,1000.24
2017-08-03T01:41:12.151Z,1000.24
2017-08-03T01:42:12.456Z,1000.22
2017-08-03T01:43:12.148Z,1000.16
2017-08-03T01:44:12.131Z,1000.09
2017-08-03T01:45:12.145Z,1000.11
2017-08-03T01:46:12.141Z,1000.07
2017-08-03T01:47:12.123Z,1000.07
2017-08-03T01:48:12.569Z,1000.05
2017-08-03T01:49:12.111Z,1000.04
2017-08-03T01:50:12.095Z,1000.02
2017-08-03T01:51:12.086Z,999.99
2017-08-03T01:52:12.096Z,999.95
2017-08-03T01:53:12.075Z,999.89
2017-08-03T01:54:12.511Z,999.93
2017-08-03T01:55:12.072Z,999.93
2017-08-03T01:56:12.057Z,999.94
2017-08-03T01:57:12.066Z,999.93
2017-08-03T01:58:12.040Z,999.94
2017-08-03T01:59:12.035Z,999.92
2017-08-03T02:00:12.437Z,999.90
2017-08-03T02:01:12.024Z,999.90
2017-08-03T02:02:12.025Z,999.88
2017-08-03T02:03:12.021Z,999.92
2017-08-03T02:04:12.002Z,999.87
2017-08-03T02:05:12.019Z,999.86
2017-08-03T02:06:12.212Z,999.84
2017-08-03T02:07:11.986Z,999.81
2017-08-03T02:08:11.991Z,999.81
2017-08-03T02:09:11.974Z,999.76
2017-08-03T02:10:11.964Z,999.71
2017-08-03T02:11:11.964Z,999.71
2017-08-03T02:12:12.393Z,999.74
2017-08-03T02:13:11.945Z,999.77
2017-08-03T02:14:11.939Z,999.83
2017-08-03T02:15:11.945Z,999.85
2017-08-03T02:16:11.931Z,999.84
2017-08-03T02:17:11.932Z,999.80
2017-08-03T02:18:12.311Z,999.76
2017-08-03T02:19:11.917Z,999.76
2017-08-03T02:20:11.908Z,999.75
2017-08-03T02:21:11.905Z,999.74
2017-08-03T02:22:11.895Z,999.71
2017-08-03T02:23:11.880Z,999.69
2017-08-03T02:24:12.178Z,999.65
2017-08-03T02:25:11.879Z,999.66
2017-08-03T02:26:11.868Z,999.63
2017-08-03T02:27:11.861Z,999.63
2017-08-03T02:28:11.859Z,999.65
2017-08-03T02:29:11.851Z,999.64
2017-08-03T02:30:12.168Z,999.66
2017-08-03T02:31:11.831Z,999.69
2017-08-03T02:32:11.821Z,999.66
2017-08-03T02:33:11.829Z,999.67
2017-08-03T02:34:11.820Z,999.71
2017-08-03T02:35:11.805Z,999.70
2017-08-03T02:36:12.125Z,999.66
2017-08-03T02:37:11.793Z,999.63
2017-08-03T02:38:11.783Z,999.61
2017-08-03T02:39:11.781Z,999.56
2017-08-03T02:40:11.771Z,999.58
2017-08-03T02:41:11.777Z,999.61
2017-08-03T02:42:11.796Z,999.61
2017-08-03T02:43:11.752Z,999.57
2017-08-03T02:44:11.755Z,999.51
2017-08-03T02:45:11.754Z,999.48
2017-08-03T02:46:12.156Z,999.43
2017-08-03T02:47:11.724Z,999.40
2017-08-03T02:48:11.727Z,999.41
2017-08-03T02:49:11.722Z,999.38
2017-08-03T02:50:11.720Z,999.37
2017-08-03T02:51:11.697Z,999.38
2017-08-03T02:52:12.007Z,999.40
2017-08-03T02:53:11.692Z,999.44
2017-08-03T02:54:11.687Z,999.44
2017-08-03T02:55:11.672Z,999.42
2017-08-03T02:56:11.666Z,999.47
2017-08-03T02:57:11.675Z,999.53
2017-08-03T02:58:12.029Z,999.56
2017-08-03T02:59:11.660Z,999.58
2017-08-03T03:00:11.659Z,999.55
2017-08-03T03:01:11.648Z,999.50
2017-08-03T03:02:11.626Z,999.52
2017-08-03T03:03:11.629Z,999.52
2017-08-03T03:04:11.648Z,999.52
2017-08-03T03:05:11.614Z,999.48
2017-08-03T03:06:11.615Z,999.39
2017-08-03T03:07:11.605Z,999.41
2017-08-03T03:08:11.607Z,999.41
2017-08-03T03:09:11.896Z,999.41
2017-08-03T03:10:11.584Z,999.37
2017-08-03T03:11:11.587Z,999.40
2017-08-03T03:12:11.576Z,999.37
2017-08-03T03:13:11.568Z,999.39
2017-08-03T03:14:11.554Z,999.37
2017-08-03T03:15:11.591Z,999.33
2017-08-03T03:16:11.552Z,999.33
2017-08-03T03:17:11.547Z,999.32
2017-08-03T03:18:11.532Z,999.32
2017-08-03T03:19:11.551Z,999.28
2017-08-03T03:20:11.522Z,999.19
2017-08-03T03:21:11.509Z,999.12
2017-08-03T03:22:11.514Z,999.03
2017-08-03T03:23:11.504Z,999.00
2017-08-03T03:24:11.536Z,998.97
2017-08-03T03:25:11.487Z,998.97
2017-08-03T03:26:11.486Z,998.98
2017-08-03T03:27:11.486Z,998.98
2017-08-03T03:28:11.463Z,998.95
2017-08-03T03:29:11.830Z,998.91
2017-08-03T03:30:11.463Z,998.92
2017-08-03T03:31:11.451Z,998.96
2017-08-03T03:32:11.437Z,998.90
2017-08-03T03:33:11.442Z,998.88
2017-08-03T03:34:11.438Z,998.87
2017-08-03T03:35:11.460Z,998.86
2017-08-03T03:36:11.407Z,998.91
2017-08-03T03:37:11.403Z,998.93
2017-08-03T03:38:11.409Z,998.96
2017-08-03T03:39:11.698Z,998.92
2017-08-03T03:40:11.395Z,998.96
2017-08-03T03:41:11.393Z,998.93
2017-08-03T03:42:11.370Z,998.88
2017-08-03T03:43:11.378Z,998.90
2017-08-03T03:44:11.369Z,998.91
2017-08-03T03:45:11.395Z,998.87
2017-08-03T03:46:11.345Z,998.89
2017-08-03T03:47:11.346Z,998.86
2017-08-03T03:48:11.329Z,998.95
2017-08-03T03:49:11.323Z,998.94
2017-08-03T03:50:11.856Z,998.91
2017-08-03T03:51:11.327Z,998.89
2017-08-03T03:52:11.308Z,998.85
2017-08-03T03:53:11.307Z,998.88
2017-08-03T03:54:11.301Z,998.83
2017-08-03T03:55:11.286Z,998.86
2017-08-03T03:56:11.583Z,998.86
2017-08-03T03:57:11.274Z,998.85
2017-08-03T03:58:11.275Z,998.83
2017-08-03T03:59:11.271Z,998.82
2017-08-03T04:00:11.262Z,998.72
2017-08-03T04:01:11.257Z,998.66
2017-08-03T04:02:11.607Z,998.57
2017-08-03T04:03:11.244Z,998.49
2017-08-03T04:04:11.238Z,998.45
2017-08-03T04:05:11.235Z,998.51
2017-08-03T04:06:11.222Z,998.56
2017-08-03T04:07:11.233Z,998.58
2017-08-03T04:08:11.529Z,998.60
2017-08-03T04:09:11.203Z,998.52
2017-08-03T04:10:11.186Z,998.49
2017-08-03T04:11:11.191Z,998.46
2017-08-03T04:12:11.188Z,998.53
2017-08-03T04:13:11.168Z,998.49
2017-08-03T04:14:11.468Z,998.48
2017-08-03T04:15:11.165Z,998.44
2017-08-03T04:16:11.144Z,998.38
2017-08-03T04:17:11.153Z,998.30
2017-08-03T04:18:11.132Z,998.24
2017-08-03T04:19:11.126Z,998.23
2017-08-03T04:20:11.149Z,998.23
2017-08-03T04:21:11.114Z,998.15
2017-08-03T04:22:11.139Z,998.03
2017-08-03T04:23:11.113Z,997.99
2017-08-03T04:24:11.095Z,997.93
2017-08-03T04:25:11.515Z,997.95
2017-08-03T04:26:11.078Z,997.99
2017-08-03T04:27:11.086Z,998.04
2017-08-03T04:28:11.070Z,998.00
2017-08-03T04:29:11.083Z,998.04
2017-08-03T04:30:11.065Z,998.05
2017-08-03T04:31:11.264Z,998.01
2017-08-03T04:32:11.045Z,997.91
2017-08-03T04:33:11.046Z,997.86
2017-08-03T04:34:11.478Z,997.84
2017-08-03T04:35:11.741Z,997.81
2017-08-03T04:36:11.032Z,997.78
2017-08-03T04:37:11.054Z,997.80
2017-08-03T04:38:11.015Z,997.84
2017-08-03T04:39:10.999Z,997.87
2017-08-03T04:40:11.330Z,997.83
2017-08-03T04:41:10.981Z,997.85
2017-08-03T04:42:10.990Z,997.87
2017-08-03T04:43:10.973Z,997.82
2017-08-03T04:44:10.975Z,997.82
2017-08-03T04:45:10.968Z,997.82
2017-08-03T04:46:11.322Z,997.77
2017-08-03T04:47:10.964Z,997.73
2017-08-03T04:48:10.936Z,997.71
2017-08-03T04:49:10.932Z,997.67
2017-08-03T04:50:10.948Z,997.71
2017-08-03T04:51:10.913Z,997.67
2017-08-03T04:52:11.245Z,997.66
2017-08-03T04:53:10.906Z,997.65
2017-08-03T04:54:10.908Z,997.67
2017-08-03T04:55:10.902Z,997.64
2017-08-03T04:56:10.884Z,997.73
2017-08-03T04:57:10.879Z,997.74
2017-08-03T04:58:11.215Z,997.73
2017-08-03T04:59:10.885Z,997.74
2017-08-03T05:00:10.859Z,997.72
2017-08-03T05:01:10.854Z,997.66
2017-08-03T05:02:10.854Z,997.60
2017-08-03T05:03:10.847Z,997.61
2017-08-03T05:04:10.875Z,997.56
2017-08-03T05:05:10.839Z,997.60
2017-08-03T05:06:10.833Z,997.59
2017-08-03T05:07:10.813Z,997.57
2017-08-03T05:08:10.817Z,997.56
2017-08-03T05:09:11.119Z,997.56
2017-08-03T05:10:10.789Z,997.46
2017-08-03T05:11:10.797Z,997.48
2017-08-03T05:12:10.780Z,997.49
2017-08-03T05:13:10.775Z,997.51
2017-08-03T05:14:10.766Z,997.50
2017-08-03T05:15:11.167Z,997.51
2017-08-03T05:16:10.762Z,997.48
2017-08-03T05:17:10.761Z,997.53
2017-08-03T05:18:10.741Z,997.51
2017-08-03T05:19:10.748Z,997.52
2017-08-03T05:20:10.726Z,997.53
2017-08-03T05:21:11.056Z,997.48
2017-08-03T05:22:10.716Z,997.43
2017-08-03T05:23:10.708Z,997.38
2017-08-03T05:24:10.716Z,997.26
2017-08-03T05:25:10.694Z,997.18
2017-08-03T05:26:10.687Z,997.17
2017-08-03T05:27:10.719Z,997.15
2017-08-03T05:28:10.683Z,997.18
2017-08-03T05:29:10.675Z,997.24
2017-08-03T05:30:10.662Z,997.29
2017-08-03T05:31:10.665Z,997.36
2017-08-03T05:32:11.009Z,997.39
2017-08-03T05:33:10.663Z,997.39
2017-08-03T05:34:10.647Z,997.39
2017-08-03T05:35:10.644Z,997.35
2017-08-03T05:36:10.621Z,997.36
2017-08-03T05:37:10.616Z,997.30
2017-08-03T05:38:10.917Z,997.25
2017-08-03T05:39:10.603Z,997.18
2017-08-03T05:40:10.609Z,997.02
2017-08-03T05:41:10.591Z,996.99
2017-08-03T05:42:10.589Z,996.95
2017-08-03T05:43:10.577Z,996.82
2017-08-03T05:44:10.603Z,996.74
2017-08-03T05:45:10.577Z,996.67
2017-08-03T05:46:10.561Z,996.69
2017-08-03T05:47:10.862Z,996.70
2017-08-03T05:48:10.555Z,996.76
2017-08-03T05:49:10.552Z,996.75
2017-08-03T05:50:10.554Z,996.83
2017-08-03T05:51:10.535Z,996.79
2017-08-03T05:52:10.519Z,996.79
2017-08-03T05:53:10.864Z,996.71
2017-08-03T05:54:10.511Z,996.74
2017-08-03T05:55:10.505Z,996.82
2017-08-03T05:56:10.490Z,996.90
2017-08-03T05:57:10.494Z,996.85
2017-08-03T05:58:10.492Z,996.79
2017-08-03T05:59:10.781Z,996.79
2017-08-03T06:00:10.467Z,996.79
2017-08-03T06:01:10.473Z,996.79
2017-08-03T06:02:10.466Z,996.82
2017-08-03T06:03:10.458Z,996.81
2017-08-03T06:04:10.442Z,996.80
2017-08-03T06:05:10.490Z,996.76
2017-08-03T06:06:10.437Z,996.76
2017-08-03T06:07:10.434Z,996.79
2017-08-03T06:08:10.757Z,996.83
2017-08-03T06:09:10.425Z,996.86
2017-08-03T06:10:10.412Z,996.84
2017-08-03T06:11:10.410Z,996.88
2017-08-03T06:12:10.409Z,996.90
2017-08-03T06:13:10.411Z,996.92
2017-08-03T06:14:10.691Z,996.97
2017-08-03T06:15:10.372Z,996.94
2017-08-03T06:16:10.379Z,996.94
2017-08-03T06:17:10.372Z,996.88
2017-08-03T06:18:10.367Z,996.86
2017-08-03T06:19:10.350Z,996.79
2017-08-03T06:20:10.559Z,996.80
2017-08-03T06:21:10.351Z,996.80
2017-08-03T06:22:10.327Z,996.79
2017-08-03T06:23:10.342Z,996.76
2017-08-03T06:24:10.327Z,996.67
2017-08-03T06:25:10.321Z,996.67
2017-08-03T06:26:10.617Z,996.67
2017-08-03T06:27:10.953Z,996.68
2017-08-03T06:28:10.313Z,996.70
2017-08-03T06:29:10.303Z,996.71
2017-08-03T06:30:10.296Z,996.68
2017-08-03T06:31:10.283Z,996.69
2017-08-03T06:32:10.577Z,996.71
2017-08-03T06:33:10.271Z,996.74
2017-08-03T06:34:10.266Z,996.72
2017-08-03T06:35:10.264Z,996.75
2017-08-03T06:36:10.243Z,996.73
2017-08-03T06:37:10.245Z,996.71
2017-08-03T06:38:10.261Z,996.73
2017-08-03T06:39:10.229Z,996.71
2017-08-03T06:40:10.571Z,996.67
2017-08-03T06:41:10.212Z,996.71
2017-08-03T06:42:10.210Z,996.72
2017-08-03T06:43:10.217Z,996.64
2017-08-03T06:44:10.192Z,996.59
2017-08-03T06:45:10.195Z,996.61
2017-08-03T06:46:10.507Z,996.66
2017-08-03T06:47:10.174Z,996.66
2017-08-03T06:48:10.177Z,996.65
2017-08-03T06:49:10.163Z,996.62
2017-08-03T06:50:10.152Z,996.61
2017-08-03T06:51:10.163Z,996.64
2017-08-03T06:52:10.185Z,996.62
2017-08-03T06:53:10.152Z,996.64
2017-08-03T06:54:10.129Z,996.62
2017-08-03T06:55:10.587Z,996.58
2017-08-03T06:56:10.120Z,996.63
2017-08-03T06:57:10.133Z,996.55
2017-08-03T06:58:10.106Z,996.54
2017-08-03T06:59:10.100Z,996.55
2017-08-03T07:00:10.106Z,996.58
2017-08-03T07:01:10.557Z,996.62
2017-08-03T07:02:10.550Z,996.56
2017-08-03T07:03:10.517Z,996.53
2017-08-03T07:04:10.067Z,996.44
2017-08-03T07:05:10.076Z,996.41
2017-08-03T07:06:10.057Z,996.38
2017-08-03T07:07:10.369Z,996.35
2017-08-03T07:08:10.053Z,996.43
2017-08-03T07:09:10.041Z,996.41
2017-08-03T07:10:10.040Z,996.33
2017-08-03T07:11:10.038Z,996.31
2017-08-03T07:12:10.031Z,996.38
2017-08-03T07:13:10.234Z,996.39
2017-08-03T07:14:10.007Z,996.41
2017-08-03T07:15:10.024Z,996.39
2017-08-03T07:16:09.995Z,996.43
2017-08-03T07:17:10.002Z,996.43
2017-08-03T07:18:09.994Z,996.45
2017-08-03T07:19:10.003Z,996.52
2017-08-03T07:20:09.979Z,996.66
2017-08-03T07:21:10.342Z,996.67
2017-08-03T07:22:09.968Z,996.76
2017-08-03T07:23:09.958Z,996.75
2017-08-03T07:24:09.948Z,996.73
2017-08-03T07:25:09.942Z,996.65
2017-08-03T07:26:09.947Z,996.69
2017-08-03T07:27:09.972Z,996.70
2017-08-03T07:28:09.933Z,996.81
2017-08-03T07:29:09.939Z,996.78
2017-08-03T07:30:09.911Z,996.76
2017-08-03T07:31:10.296Z,996.84
2017-08-03T07:32:09.903Z,996.84
2017-08-03T07:33:09.905Z,996.83
2017-08-03T07:34:09.887Z,996.79
2017-08-03T07:35:09.895Z,996.75
2017-08-03T07:36:09.891Z,996.74
2017-08-03T07:37:10.184Z,996.70
2017-08-03T07:38:09.869Z,996.67
2017-08-03T07:39:09.856Z,996.67
2017-08-03T07:40:09.864Z,996.68
2017-08-03T07:41:09.858Z,996.71
2017-08-03T07:42:09.847Z,996.68
2017-08-03T07:43:10.308Z,996.71
2017-08-03T07:44:09.837Z,996.65
2017-08-03T07:45:09.832Z,996.62
2017-08-03T07:46:09.829Z,996.56
2017-08-03T07:47:09.823Z,996.54
2017-08-03T07:48:09.823Z,996.58
2017-08-03T07:49:10.207Z,996.55
2017-08-03T07:50:09.803Z,996.58
2017-08-03T07:51:09.809Z,996.53
2017-08-03T07:52:09.794Z,996.45
2017-08-03T07:53:09.779Z,996.47
2017-08-03T07:54:09.782Z,996.51
2017-08-03T07:55:09.805Z,996.60
2017-08-03T07:56:09.761Z,996.57
2017-08-03T07:57:09.800Z,996.55
2017-08-03T07:58:09.760Z,996.57
2017-08-03T07:59:09.772Z,996.55
2017-08-03T08:00:09.747Z,996.54
2017-08-03T08:01:09.748Z,996.51
2017-08-03T08:02:10.188Z,996.61
2017-08-03T08:03:09.751Z,996.58
2017-08-03T08:04:09.798Z,996.57
2017-08-03T08:05:10.623Z,996.55
2017-08-03T08:06:09.717Z,996.57
2017-08-03T08:07:10.939Z,996.51
2017-08-03T08:08:11.276Z,996.58
2017-08-03T08:09:10.395Z,996.58
2017-08-03T08:10:09.990Z,996.68
2017-08-03T08:11:10.298Z,996.67
2017-08-03T08:12:10.303Z,996.63
2017-08-03T08:13:11.546Z,996.62
2017-08-03T08:14:10.979Z,996.52
2017-08-03T08:15:11.090Z,996.51
2017-08-03T08:16:11.289Z,996.45
2017-08-03T08:17:10.247Z,996.38
2017-08-03T08:18:10.421Z,996.40
2017-08-03T08:19:09.806Z,996.41
2017-08-03T08:20:09.982Z,996.42
2017-08-03T08:21:09.624Z,996.34
2017-08-03T08:22:09.612Z,996.39
2017-08-03T08:23:10.393Z,996.40
2017-08-03T08:24:10.199Z,996.40
2017-08-03T08:25:09.598Z,996.35
2017-08-03T08:26:09.955Z,996.36
2017-08-03T08:27:09.590Z,996.34
2017-08-03T08:28:09.568Z,996.30
2017-08-03T08:29:09.581Z,996.32
2017-08-03T08:30:10.307Z,996.33
2017-08-03T08:31:10.244Z,996.37
2017-08-03T08:32:10.847Z,996.30
2017-08-03T08:33:09.695Z,996.32
2017-08-03T08:34:09.772Z,996.39
2017-08-03T08:35:09.548Z,996.50
2017-08-03T08:36:09.544Z,996.43
2017-08-03T08:37:10.252Z,996.54
2017-08-03T08:38:10.666Z,996.38
2017-08-03T08:39:09.525Z,996.29
2017-08-03T08:40:09.516Z,996.27
2017-08-03T08:41:09.524Z,996.19
2017-08-03T08:42:09.514Z,996.26
2017-08-03T08:43:09.507Z,996.28
2017-08-03T08:44:09.542Z,996.28
2017-08-03T08:45:09.589Z,996.27
2017-08-03T08:46:10.342Z,996.42
2017-08-03T08:47:11.886Z,996.24
2017-08-03T08:48:09.846Z,996.24
2017-08-03T08:49:09.479Z,996.41
2017-08-03T08:50:09.466Z,996.32
2017-08-03T08:51:09.462Z,996.23
2017-08-03T08:52:10.167Z,996.11
2017-08-03T08:53:09.638Z,996.07
2017-08-03T08:54:10.264Z,996.02
2017-08-03T08:55:09.472Z,996.20
2017-08-03T08:56:09.446Z,996.24
2017-08-03T08:57:10.065Z,996.27
2017-08-03T08:58:09.424Z,996.28
2017-08-03T08:59:10.889Z,996.23
2017-08-03T09:00:10.295Z,996.32
2017-08-03T09:01:09.891Z,996.29
2017-08-03T09:02:09.417Z,996.24
2017-08-03T09:03:10.888Z,996.17
2017-08-03T09:04:10.093Z,996.17
2017-08-03T09:05:09.817Z,996.18
2017-08-03T09:06:09.696Z,996.21
2017-08-03T09:07:09.898Z,996.21
2017-08-03T09:08:10.228Z,996.21
2017-08-03T09:09:10.494Z,996.13
2017-08-03T09:10:09.585Z,996.15
2017-08-03T09:11:09.845Z,996.13
2017-08-03T09:12:09.607Z,996.18
2017-08-03T09:13:10.566Z,996.16
2017-08-03T09:14:09.735Z,996.16
2017-08-03T09:15:10.121Z,996.22
2017-08-03T09:16:09.909Z,996.24
2017-08-03T09:17:09.849Z,996.29
2017-08-03T09:18:09.681Z,996.26
2017-08-03T09:19:10.104Z,996.21
2017-08-03T09:20:10.124Z,996.21
2017-08-03T09:21:10.237Z,996.20
2017-08-03T09:22:09.369Z,996.26
2017-08-03T09:23:09.978Z,996.23
2017-08-03T09:24:09.959Z,996.26
2017-08-03T09:25:09.472Z,996.32
2017-08-03T09:26:09.388Z,996.26
2017-08-03T09:27:09.854Z,996.29
2017-08-03T09:28:09.505Z,996.18
2017-08-03T09:29:09.862Z,996.17
2017-08-03T09:30:09.714Z,996.25
2017-08-03T09:31:10.044Z,996.18
2017-08-03T09:32:09.737Z,996.17
2017-08-03T09:33:09.697Z,996.12
2017-08-03T09:34:09.390Z,996.14
2017-08-03T09:35:09.482Z,996.16
2017-08-03T09:36:09.541Z,996.15
2017-08-03T09:37:09.641Z,996.14
2017-08-03T09:38:09.686Z,996.11
2017-08-03T09:39:10.766Z,996.02
2017-08-03T09:40:09.964Z,996.01
2017-08-03T09:41:10.023Z,996.01
2017-08-03T09:42:09.974Z,996.02
2017-08-03T09:43:09.209Z,996.10
2017-08-03T09:44:09.209Z,996.13
2017-08-03T09:45:11.383Z,996.13
2017-08-03T09:46:10.011Z,996.15
2017-08-03T09:47:09.210Z,996.11
2017-08-03T09:48:09.538Z,996.14
2017-08-03T09:49:09.660Z,996.11
2017-08-03T09:50:09.392Z,996.12
2017-08-03T09:51:10.657Z,996.13
2017-08-03T09:52:09.330Z,996.17
2017-08-03T09:53:09.424Z,996.17
2017-08-03T09:54:09.163Z,996.18
2017-08-03T09:55:09.146Z,996.18
2017-08-03T09:56:09.130Z,996.14
2017-08-03T09:57:09.343Z,996.16
2017-08-03T09:58:09.131Z,995.94
2017-08-03T09:59:10.406Z,995.97
2017-08-03T10:00:09.849Z,996.08
2017-08-03T10:01:09.214Z,995.94
2017-08-03T10:02:09.104Z,995.90
2017-08-03T10:03:09.148Z,995.93
2017-08-03T10:04:10.408Z,995.98
2017-08-03T10:05:09.729Z,995.87
2017-08-03T10:06:12.416Z,995.88
2017-08-03T10:07:09.091Z,995.80
2017-08-03T10:08:09.085Z,995.74
2017-08-03T10:09:09.435Z,995.84
2017-08-03T10:10:09.083Z,995.77
2017-08-03T10:11:10.315Z,995.68
2017-08-03T10:12:10.161Z,995.75
2017-08-03T10:13:09.617Z,995.76
2017-08-03T10:14:09.672Z,995.94
2017-08-03T10:15:09.416Z,995.81
2017-08-03T10:16:09.619Z,995.84
2017-08-03T10:17:09.061Z,995.83
2017-08-03T10:18:09.037Z,995.73
2017-08-03T10:19:09.168Z,995.72
2017-08-03T10:20:09.847Z,995.75
2017-08-03T10:21:12.794Z,995.77
2017-08-03T10:22:09.022Z,995.74
2017-08-03T10:23:09.612Z,995.78
2017-08-03T10:24:09.168Z,995.81
2017-08-03T10:25:09.580Z,995.69
2017-08-03T10:26:23.788Z,995.71
2017-08-03T10:27:08.998Z,995.60
2017-08-03T10:28:08.988Z,995.61
2017-08-03T10:29:08.992Z,995.61
2017-08-03T10:30:08.987Z,995.55
2017-08-03T10:31:08.993Z,995.56
2017-08-03T10:32:09.311Z,995.62
2017-08-03T10:33:09.752Z,995.54
2017-08-03T10:34:09.796Z,995.60
2017-08-03T10:35:10.053Z,995.61
2017-08-03T10:36:09.211Z,995.62
2017-08-03T10:37:09.424Z,995.59
2017-08-03T10:38:09.162Z,995.67
2017-08-03T10:39:09.090Z,995.72
2017-08-03T10:40:09.286Z,995.75
2017-08-03T10:41:11.385Z,995.77
2017-08-03T10:42:11.538Z,995.77
2017-08-03T10:43:09.064Z,995.77
2017-08-03T10:44:08.941Z,995.72
2017-08-03T10:45:08.922Z,995.79
2017-08-03T10:46:11.206Z,995.78
2017-08-03T10:47:09.728Z,995.67
2017-08-03T10:48:10.517Z,995.70
2017-08-03T10:49:08.922Z,995.62
2017-08-03T10:50:08.977Z,995.64
2017-08-03T10:51:08.981Z,995.70
2017-08-03T10:52:09.002Z,995.70
2017-08-03T10:53:09.024Z,995.71
2017-08-03T10:54:10.170Z,995.76
2017-08-03T10:55:09.542Z,995.75
2017-08-03T10:56:09.292Z,995.67
2017-08-03T10:57:09.003Z,995.71
2017-08-03T10:58:09.087Z,995.71
2017-08-03T10:59:09.226Z,995.73
2017-08-03T11:00:09.444Z,995.71
2017-08-03T11:01:09.477Z,995.69
2017-08-03T11:02:11.667Z,995.62
2017-08-03T11:03:16.060Z,995.55
2017-08-03T11:04:12.435Z,995.63
2017-08-03T11:05:09.614Z,995.61
2017-08-03T11:06:10.970Z,995.61
2017-08-03T11:07:09.124Z,995.56
2017-08-03T11:08:08.935Z,995.49
2017-08-03T11:09:08.886Z,995.51
2017-08-03T11:10:09.125Z,995.50
2017-08-03T11:11:10.378Z,995.50
2017-08-03T11:12:09.606Z,995.45
2017-08-03T11:13:09.321Z,995.41
2017-08-03T11:14:08.807Z,995.42
2017-08-03T11:15:08.801Z,995.52
2017-08-03T11:16:09.085Z,995.45
2017-08-03T11:17:08.799Z,995.35
2017-08-03T11:18:08.788Z,995.38
2017-08-03T11:19:08.798Z,995.40
2017-08-03T11:20:08.780Z,995.45
2017-08-03T11:21:09.558Z,995.53
2017-08-03T11:22:09.983Z,995.25
2017-08-03T11:23:08.776Z,995.45
2017-08-03T11:24:08.814Z,995.54
2017-08-03T11:25:08.828Z,995.48
2017-08-03T11:26:09.484Z,995.62
2017-08-03T11:27:08.760Z,995.37
2017-08-03T11:28:08.753Z,995.34
2017-08-03T11:29:08.747Z,995.35
2017-08-03T11:30:08.742Z,995.39
2017-08-03T11:31:09.503Z,995.36
2017-08-03T11:32:09.212Z,995.37
2017-08-03T11:33:08.739Z,995.41
2017-08-03T11:34:08.739Z,995.26
2017-08-03T11:35:09.508Z,995.29
2017-08-03T11:36:08.726Z,995.31
2017-08-03T11:37:08.726Z,995.20
2017-08-03T11:38:08.757Z,995.25
2017-08-03T11:39:09.493Z,995.33
2017-08-03T11:40:08.809Z,995.32
2017-08-03T11:41:09.781Z,995.32
2017-08-03T11:42:09.184Z,995.37
2017-08-03T11:43:09.013Z,995.32
2017-08-03T11:44:09.069Z,995.34
2017-08-03T11:45:12.435Z,995.38
2017-08-03T11:46:09.495Z,995.28
2017-08-03T11:47:09.434Z,995.36
2017-08-03T11:48:08.694Z,995.43
2017-08-03T11:49:09.462Z,995.46
2017-08-03T11:50:09.462Z,995.43
2017-08-03T11:51:08.679Z,995.39
2017-08-03T11:52:09.470Z,995.38
2017-08-03T11:53:09.748Z,995.43
2017-08-03T11:54:08.729Z,995.39
2017-08-03T11:55:08.666Z,995.49
2017-08-03T11:56:09.446Z,995.61
2017-08-03T11:57:09.451Z,995.63
2017-08-03T11:58:08.976Z,995.55
2017-08-03T11:59:08.689Z,995.58
2017-08-03T12:00:09.464Z,995.60
2017-08-03T12:01:09.117Z,995.63
2017-08-03T12:02:09.103Z,995.76
2017-08-03T12:03:09.701Z,995.78
2017-08-03T12:04:08.755Z,995.78
2017-08-03T12:05:09.404Z,995.74
2017-08-03T12:06:09.131Z,995.93
2017-08-03T12:07:09.399Z,995.81
2017-08-03T12:08:09.591Z,996.06
2017-08-03T12:09:08.636Z,996.07
2017-08-03T12:10:09.299Z,996.40
2017-08-03T12:11:09.413Z,996.19
2017-08-03T12:12:09.511Z,996.08
2017-08-03T12:13:08.603Z,996.05
2017-08-03T12:14:08.926Z,996.07
2017-08-03T12:15:09.950Z,996.15
2017-08-03T12:16:09.328Z,996.13
2017-08-03T12:17:09.213Z,996.22
2017-08-03T12:18:08.566Z,996.34
2017-08-03T12:19:08.560Z,996.17
2017-08-03T12:20:08.768Z,996.24
2017-08-03T12:21:08.628Z,996.47
2017-08-03T12:22:09.210Z,996.44
2017-08-03T12:23:08.533Z,996.28
2017-08-03T12:24:08.532Z,996.46
2017-08-03T12:25:08.605Z,996.18